sensor_id;sensor_type;location;lat;lon;timestamp;pressure;altitude;pressure_sealevel;temperature;humidity
77739;BME280;66904;59.926;30.404;2024-02-23T00:02:37;100816.44;;;3.89;69.91
77739;BME280;66904;59.926;30.404;2024-02-23T00:07:48;100806.66;;;3.94;69.71
77739;BME280;66904;59.926;30.404;2024-02-23T00:12:58;100796.59;;;4.03;69.65
77739;BME280;66904;59.926;30.404;2024-02-23T00:18:10;100796.31;;;4.09;70.01
77739;BME280;66904;59.926;30.404;2024-02-23T00:23:23;100796.94;;;4.14;69.54
77739;BME280;66904;59.926;30.404;2024-02-23T00:28:33;100791.84;;;4.11;69.91
77739;BME280;66904;59.926;30.404;2024-02-23T00:33:44;100785.63;;;4.14;69.54
77739;BME280;66904;59.926;30.404;2024-02-23T00:38:55;100792.19;;;4.23;69.71
77739;BME280;66904;59.926;30.404;2024-02-23T00:44:06;100782.50;;;4.25;69.83
77739;BME280;66904;59.926;30.404;2024-02-23T00:49:16;100780.59;;;4.28;69.09
77739;BME280;66904;59.926;30.404;2024-02-23T00:54:27;100781.22;;;4.14;69.69
77739;BME280;66904;59.926;30.404;2024-02-23T00:59:38;100784.28;;;4.05;69.65
77739;BME280;66904;59.926;30.404;2024-02-23T01:04:48;100781.94;;;3.99;70.05
77739;BME280;66904;59.926;30.404;2024-02-23T01:09:59;100791.84;;;3.93;70.09
77739;BME280;66904;59.926;30.404;2024-02-23T01:15:10;100789.28;;;3.91;70.14
77739;BME280;66904;59.926;30.404;2024-02-23T01:20:20;100788.19;;;3.97;70.20
77739;BME280;66904;59.926;30.404;2024-02-23T01:25:31;100791.09;;;3.91;69.88
77739;BME280;66904;59.926;30.404;2024-02-23T01:30:42;100786.00;;;3.88;70.33
77739;BME280;66904;59.926;30.404;2024-02-23T01:35:53;100776.91;;;3.95;70.27
77739;BME280;66904;59.926;30.404;2024-02-23T01:41:04;100777.34;;;4.04;70.06
77739;BME280;66904;59.926;30.404;2024-02-23T01:46:15;100785.84;;;4.09;70.00
77739;BME280;66904;59.926;30.404;2024-02-23T01:51:29;100788.13;;;4.17;70.64
77739;BME280;66904;59.926;30.404;2024-02-23T01:56:40;100783.09;;;4.12;70.06
77739;BME280;66904;59.926;30.404;2024-02-23T02:01:50;100774.22;;;4.15;70.50
77739;BME280;66904;59.926;30.404;2024-02-23T02:07:01;100757.09;;;4.27;70.17
77739;BME280;66904;59.926;30.404;2024-02-23T02:12:12;100765.53;;;4.33;69.97
77739;BME280;66904;59.926;30.404;2024-02-23T02:17:23;100752.19;;;4.38;70.35
77739;BME280;66904;59.926;30.404;2024-02-23T02:22:34;100741.44;;;4.44;70.24
77739;BME280;66904;59.926;30.404;2024-02-23T02:27:45;100747.38;;;4.47;70.28
77739;BME280;66904;59.926;30.404;2024-02-23T02:32:56;100748.00;;;4.52;70.24
77739;BME280;66904;59.926;30.404;2024-02-23T02:38:07;100755.00;;;4.52;70.12
77739;BME280;66904;59.926;30.404;2024-02-23T02:43:18;100746.13;;;4.54;70.00
77739;BME280;66904;59.926;30.404;2024-02-23T02:48:29;100762.63;;;4.56;70.19
77739;BME280;66904;59.926;30.404;2024-02-23T02:53:39;100762.78;;;4.53;69.81
77739;BME280;66904;59.926;30.404;2024-02-23T02:58:50;100758.69;;;4.48;69.86
77739;BME280;66904;59.926;30.404;2024-02-23T03:04:01;100750.13;;;4.44;70.61
77739;BME280;66904;59.926;30.404;2024-02-23T03:09:12;100753.38;;;4.49;70.17
77739;BME280;66904;59.926;30.404;2024-02-23T03:14:23;100753.94;;;4.56;69.94
77739;BME280;66904;59.926;30.404;2024-02-23T03:19:33;100767.88;;;4.56;70.18
77739;BME280;66904;59.926;30.404;2024-02-23T03:24:44;100757.16;;;4.61;70.37
77739;BME280;66904;59.926;30.404;2024-02-23T03:29:55;100755.47;;;4.60;69.85
77739;BME280;66904;59.926;30.404;2024-02-23T03:35:06;100751.75;;;4.64;70.20
77739;BME280;66904;59.926;30.404;2024-02-23T03:40:18;100740.47;;;4.63;70.21
77739;BME280;66904;59.926;30.404;2024-02-23T03:45:29;100729.97;;;4.63;69.92
77739;BME280;66904;59.926;30.404;2024-02-23T03:50:40;100730.75;;;4.65;70.16
77739;BME280;66904;59.926;30.404;2024-02-23T03:55:50;100727.13;;;4.68;69.82
77739;BME280;66904;59.926;30.404;2024-02-23T04:01:01;100724.75;;;4.63;69.71
77739;BME280;66904;59.926;30.404;2024-02-23T04:06:12;100736.19;;;4.61;69.80
77739;BME280;66904;59.926;30.404;2024-02-23T04:11:23;100742.53;;;4.57;70.09
77739;BME280;66904;59.926;30.404;2024-02-23T04:16:33;100745.44;;;4.51;69.95
77739;BME280;66904;59.926;30.404;2024-02-23T04:21:44;100720.41;;;4.45;70.21
77739;BME280;66904;59.926;30.404;2024-02-23T04:26:55;100721.84;;;4.51;70.02
77739;BME280;66904;59.926;30.404;2024-02-23T04:32:06;100711.31;;;4.52;69.96
77739;BME280;66904;59.926;30.404;2024-02-23T04:37:16;100699.78;;;4.56;69.76
77739;BME280;66904;59.926;30.404;2024-02-23T04:42:27;100699.78;;;4.56;70.17
77739;BME280;66904;59.926;30.404;2024-02-23T04:47:38;100696.34;;;4.54;70.01
77739;BME280;66904;59.926;30.404;2024-02-23T04:52:50;100703.47;;;4.52;69.90
77739;BME280;66904;59.926;30.404;2024-02-23T04:58:01;100703.41;;;4.54;69.98
77739;BME280;66904;59.926;30.404;2024-02-23T05:03:12;100710.41;;;4.53;69.70
77739;BME280;66904;59.926;30.404;2024-02-23T05:08:23;100704.06;;;4.57;69.93
77739;BME280;66904;59.926;30.404;2024-02-23T05:13:34;100697.00;;;4.59;70.06
77739;BME280;66904;59.926;30.404;2024-02-23T05:18:45;100680.28;;;4.62;69.80
77739;BME280;66904;59.926;30.404;2024-02-23T05:23:59;100686.91;;;4.69;69.64
77739;BME280;66904;59.926;30.404;2024-02-23T05:29:10;100694.69;;;4.71;69.71
77739;BME280;66904;59.926;30.404;2024-02-23T05:34:22;100698.06;;;4.73;69.95
77739;BME280;66904;59.926;30.404;2024-02-23T05:39:33;100699.63;;;4.77;69.65
77739;BME280;66904;59.926;30.404;2024-02-23T05:44:44;100695.34;;;4.74;69.91
77739;BME280;66904;59.926;30.404;2024-02-23T05:49:55;100688.50;;;4.72;69.59
77739;BME280;66904;59.926;30.404;2024-02-23T05:55:06;100688.59;;;4.70;69.94
77739;BME280;66904;59.926;30.404;2024-02-23T06:00:17;100684.88;;;4.74;69.73
77739;BME280;66904;59.926;30.404;2024-02-23T06:05:32;100678.81;;;4.74;69.74
77739;BME280;66904;59.926;30.404;2024-02-23T06:10:42;100679.56;;;4.76;69.68
77739;BME280;66904;59.926;30.404;2024-02-23T06:15:53;100678.81;;;4.74;69.82
77739;BME280;66904;59.926;30.404;2024-02-23T06:21:19;100683.03;;;4.76;69.34
77739;BME280;66904;59.926;30.404;2024-02-23T06:26:30;100681.50;;;4.72;69.64
77739;BME280;66904;59.926;30.404;2024-02-23T06:31:41;100692.63;;;4.77;69.81
77739;BME280;66904;59.926;30.404;2024-02-23T06:36:52;100690.06;;;4.76;69.20
77739;BME280;66904;59.926;30.404;2024-02-23T06:42:03;100686.91;;;4.69;69.60
77739;BME280;66904;59.926;30.404;2024-02-23T06:47:15;100684.81;;;4.76;69.87
77739;BME280;66904;59.926;30.404;2024-02-23T06:52:25;100699.31;;;4.65;69.55
77739;BME280;66904;59.926;30.404;2024-02-23T06:57:39;100695.06;;;4.63;69.80
77739;BME280;66904;59.926;30.404;2024-02-23T07:02:50;100681.03;;;4.64;70.02
77739;BME280;66904;59.926;30.404;2024-02-23T07:08:01;100681.59;;;4.71;69.75
77739;BME280;66904;59.926;30.404;2024-02-23T07:13:12;100688.97;;;4.80;70.11
77739;BME280;66904;59.926;30.404;2024-02-23T07:18:23;100685.94;;;4.87;69.80
77739;BME280;66904;59.926;30.404;2024-02-23T07:23:34;100690.81;;;4.95;69.50
77739;BME280;66904;59.926;30.404;2024-02-23T07:28:44;100693.88;;;5.03;69.66
77739;BME280;66904;59.926;30.404;2024-02-23T07:33:55;100689.34;;;5.06;69.60
77739;BME280;66904;59.926;30.404;2024-02-23T07:39:06;100693.88;;;5.03;69.67
77739;BME280;66904;59.926;30.404;2024-02-23T07:44:16;100690.81;;;4.95;69.88
77739;BME280;66904;59.926;30.404;2024-02-23T07:49:27;100682.56;;;5.02;69.76
77739;BME280;66904;59.926;30.404;2024-02-23T07:54:38;100677.84;;;5.09;70.00
77739;BME280;66904;59.926;30.404;2024-02-23T07:59:49;100677.28;;;5.19;70.05
77739;BME280;66904;59.926;30.404;2024-02-23T08:05:00;100691.59;;;5.30;69.67
77739;BME280;66904;59.926;30.404;2024-02-23T08:10:11;100691.84;;;5.25;69.70
77739;BME280;66904;59.926;30.404;2024-02-23T08:15:23;100680.44;;;5.26;69.90
77739;BME280;66904;59.926;30.404;2024-02-23T08:20:34;100690.88;;;5.43;69.37
77739;BME280;66904;59.926;30.404;2024-02-23T08:25:44;100687.75;;;5.52;69.44
77739;BME280;66904;59.926;30.404;2024-02-23T08:30:55;100689.47;;;5.53;68.99
77739;BME280;66904;59.926;30.404;2024-02-23T08:36:06;100688.66;;;5.51;68.38
77739;BME280;66904;59.926;30.404;2024-02-23T08:41:17;100692.88;;;5.38;69.47
77739;BME280;66904;59.926;30.404;2024-02-23T08:46:28;100698.69;;;5.28;69.13
77739;BME280;66904;59.926;30.404;2024-02-23T08:51:39;100696.56;;;5.18;69.10
77739;BME280;66904;59.926;30.404;2024-02-23T08:56:49;100692.47;;;5.30;69.36
77739;BME280;66904;59.926;30.404;2024-02-23T09:02:00;100688.47;;;5.23;68.82
77739;BME280;66904;59.926;30.404;2024-02-23T09:07:12;100694.13;;;5.31;68.90
77739;BME280;66904;59.926;30.404;2024-02-23T09:12:23;100691.84;;;5.25;69.41
77739;BME280;66904;59.926;30.404;2024-02-23T09:17:34;100697.31;;;5.20;69.32
77739;BME280;66904;59.926;30.404;2024-02-23T09:22:45;100700.03;;;5.19;69.61
77739;BME280;66904;59.926;30.404;2024-02-23T09:27:58;100699.53;;;5.28;69.64
77739;BME280;66904;59.926;30.404;2024-02-23T09:33:09;100699.72;;;5.25;68.61
77739;BME280;66904;59.926;30.404;2024-02-23T09:38:20;100687.94;;;5.16;69.04
77739;BME280;66904;59.926;30.404;2024-02-23T09:43:32;100693.94;;;5.18;69.45
77739;BME280;66904;59.926;30.404;2024-02-23T09:48:45;100692.53;;;5.29;69.50
77739;BME280;66904;59.926;30.404;2024-02-23T09:53:56;100687.41;;;5.43;68.62
77739;BME280;66904;59.926;30.404;2024-02-23T09:59:07;100684.78;;;5.58;68.90
77739;BME280;66904;59.926;30.404;2024-02-23T10:04:18;100676.69;;;5.63;68.53
77739;BME280;66904;59.926;30.404;2024-02-23T10:09:29;100672.81;;;5.70;68.71
77739;BME280;66904;59.926;30.404;2024-02-23T10:14:41;100665.34;;;5.78;69.32
77739;BME280;66904;59.926;30.404;2024-02-23T10:19:52;100658.75;;;5.87;68.46
77739;BME280;66904;59.926;30.404;2024-02-23T10:25:03;100667.56;;;6.01;68.65
77739;BME280;66904;59.926;30.404;2024-02-23T10:30:15;100646.78;;;5.97;69.05
77739;BME280;66904;59.926;30.404;2024-02-23T10:35:26;100664.56;;;6.07;68.58
77739;BME280;66904;59.926;30.404;2024-02-23T10:40:41;100652.97;;;6.11;68.07
77739;BME280;66904;59.926;30.404;2024-02-23T10:45:53;100638.91;;;6.12;68.85
77739;BME280;66904;59.926;30.404;2024-02-23T10:51:06;100657.13;;;6.15;68.30
77739;BME280;66904;59.926;30.404;2024-02-23T10:56:18;100645.78;;;6.15;68.12
77739;BME280;66904;59.926;30.404;2024-02-23T11:01:29;100659.94;;;6.12;68.28
77739;BME280;66904;59.926;30.404;2024-02-23T11:06:42;100657.66;;;6.06;68.27
77739;BME280;66904;59.926;30.404;2024-02-23T11:11:57;100654.44;;;6.01;68.04
77739;BME280;66904;59.926;30.404;2024-02-23T11:17:17;100643.94;;;6.01;69.11
77739;BME280;66904;59.926;30.404;2024-02-23T11:22:32;100655.41;;;6.14;68.14
77739;BME280;66904;59.926;30.404;2024-02-23T11:27:49;100636.78;;;6.19;68.40
77739;BME280;66904;59.926;30.404;2024-02-23T11:33:00;100644.97;;;6.29;68.62
77739;BME280;66904;59.926;30.404;2024-02-23T11:38:10;100638.63;;;6.33;68.38
77739;BME280;66904;59.926;30.404;2024-02-23T11:43:21;100634.38;;;6.30;68.04
77739;BME280;66904;59.926;30.404;2024-02-23T11:48:32;100633.81;;;6.25;67.90
77739;BME280;66904;59.926;30.404;2024-02-23T11:53:43;100638.81;;;6.30;68.08
77739;BME280;66904;59.926;30.404;2024-02-23T11:58:54;100639.84;;;6.41;68.38
77739;BME280;66904;59.926;30.404;2024-02-23T12:04:07;100631.53;;;6.49;67.93
77739;BME280;66904;59.926;30.404;2024-02-23T12:09:17;100635.69;;;6.53;68.83
77739;BME280;66904;59.926;30.404;2024-02-23T12:14:29;100628.34;;;6.58;67.80
77739;BME280;66904;59.926;30.404;2024-02-23T12:19:40;100632.59;;;6.60;68.19
77739;BME280;66904;59.926;30.404;2024-02-23T12:24:51;100628.00;;;6.64;67.68
77739;BME280;66904;59.926;30.404;2024-02-23T12:30:02;100625.53;;;6.61;67.80
77739;BME280;66904;59.926;30.404;2024-02-23T12:35:14;100631.25;;;6.53;67.59
77739;BME280;66904;59.926;30.404;2024-02-23T12:40:25;100629.66;;;6.51;67.56
77739;BME280;66904;59.926;30.404;2024-02-23T12:45:36;100625.44;;;6.48;67.11
77739;BME280;66904;59.926;30.404;2024-02-23T12:50:47;100628.97;;;6.47;68.13
77739;BME280;66904;59.926;30.404;2024-02-23T12:55:59;100633.38;;;6.47;67.40
77739;BME280;66904;59.926;30.404;2024-02-23T13:01:10;100632.66;;;6.45;67.36
77739;BME280;66904;59.926;30.404;2024-02-23T13:06:21;100626.22;;;6.35;67.78
77739;BME280;66904;59.926;30.404;2024-02-23T13:11:32;100642.66;;;6.38;67.71
77739;BME280;66904;59.926;30.404;2024-02-23T13:16:43;100626.22;;;6.35;68.09
77739;BME280;66904;59.926;30.404;2024-02-23T13:21:53;100623.69;;;6.33;67.46
77739;BME280;66904;59.926;30.404;2024-02-23T13:27:04;100610.72;;;6.30;67.63
77739;BME280;66904;59.926;30.404;2024-02-23T13:32:15;100608.03;;;6.32;68.00
77739;BME280;66904;59.926;30.404;2024-02-23T13:37:26;100608.09;;;6.30;67.75
77739;BME280;66904;59.926;30.404;2024-02-23T13:42:37;100613.09;;;6.35;67.49
77739;BME280;66904;59.926;30.404;2024-02-23T13:48:02;100619.94;;;6.37;68.43
77739;BME280;66904;59.926;30.404;2024-02-23T13:53:15;100616.41;;;6.38;67.38
77739;BME280;66904;59.926;30.404;2024-02-23T13:58:27;100619.09;;;6.37;67.93
77739;BME280;66904;59.926;30.404;2024-02-23T14:03:38;100607.34;;;6.28;68.04
77739;BME280;66904;59.926;30.404;2024-02-23T14:08:49;100617.78;;;6.30;67.68
77739;BME280;66904;59.926;30.404;2024-02-23T14:14:00;100617.31;;;6.23;68.21
77739;BME280;66904;59.926;30.404;2024-02-23T14:19:11;100620.19;;;6.18;68.50
77739;BME280;66904;59.926;30.404;2024-02-23T14:24:21;100624.09;;;6.11;67.75
77739;BME280;66904;59.926;30.404;2024-02-23T14:29:32;100625.53;;;6.01;67.82
77739;BME280;66904;59.926;30.404;2024-02-23T14:34:43;100626.47;;;6.00;67.89
77739;BME280;66904;59.926;30.404;2024-02-23T14:39:54;100632.91;;;5.95;68.23
77739;BME280;66904;59.926;30.404;2024-02-23T14:45:05;100621.41;;;5.97;67.94
77739;BME280;66904;59.926;30.404;2024-02-23T14:50:16;100628.28;;;6.00;68.07
77739;BME280;66904;59.926;30.404;2024-02-23T14:55:27;100632.31;;;6.05;68.00
77739;BME280;66904;59.926;30.404;2024-02-23T15:00:38;100631.03;;;5.97;68.97
77739;BME280;66904;59.926;30.404;2024-02-23T15:05:49;100626.66;;;5.97;68.58
77739;BME280;66904;59.926;30.404;2024-02-23T15:10:59;100637.25;;;5.96;68.95
77739;BME280;66904;59.926;30.404;2024-02-23T15:16:10;100625.03;;;5.95;67.94
77739;BME280;66904;59.926;30.404;2024-02-23T15:21:21;100629.09;;;6.00;68.82
77739;BME280;66904;59.926;30.404;2024-02-23T15:26:32;100630.06;;;5.99;69.12
77739;BME280;66904;59.926;30.404;2024-02-23T15:31:43;100621.03;;;6.03;69.06
77739;BME280;66904;59.926;30.404;2024-02-23T15:36:53;100636.47;;;6.09;68.35
77739;BME280;66904;59.926;30.404;2024-02-23T15:42:04;100636.38;;;6.11;68.35
77739;BME280;66904;59.926;30.404;2024-02-23T15:47:15;100626.28;;;6.03;68.98
77739;BME280;66904;59.926;30.404;2024-02-23T15:52:26;100638.25;;;6.09;68.95
77739;BME280;66904;59.926;30.404;2024-02-23T15:57:40;100635.88;;;6.04;68.81
77739;BME280;66904;59.926;30.404;2024-02-23T16:02:51;100630.97;;;5.98;69.23
77739;BME280;66904;59.926;30.404;2024-02-23T16:08:02;100635.88;;;6.04;68.46
77739;BME280;66904;59.926;30.404;2024-02-23T16:13:14;100638.66;;;6.01;69.17
77739;BME280;66904;59.926;30.404;2024-02-23T16:18:25;100644.41;;;6.08;69.18
77739;BME280;66904;59.926;30.404;2024-02-23T16:23:36;100636.97;;;6.16;68.79
77739;BME280;66904;59.926;30.404;2024-02-23T16:28:46;100656.09;;;6.18;68.21
77739;BME280;66904;59.926;30.404;2024-02-23T16:33:57;100642.53;;;6.10;68.54
77739;BME280;66904;59.926;30.404;2024-02-23T16:39:08;100649.59;;;6.09;69.03
77739;BME280;66904;59.926;30.404;2024-02-23T16:44:19;100660.78;;;5.97;68.34
77739;BME280;66904;59.926;30.404;2024-02-23T16:49:30;100665.78;;;6.02;68.96
77739;BME280;66904;59.926;30.404;2024-02-23T16:54:41;100662.31;;;6.01;68.58
77739;BME280;66904;59.926;30.404;2024-02-23T16:59:52;100674.41;;;6.04;68.47
77739;BME280;66904;59.926;30.404;2024-02-23T17:05:03;100673.22;;;5.94;69.45
77739;BME280;66904;59.926;30.404;2024-02-23T17:10:14;100668.44;;;5.86;68.49
77739;BME280;66904;59.926;30.404;2024-02-23T17:15:26;100669.47;;;5.82;68.91
77739;BME280;66904;59.926;30.404;2024-02-23T17:20:37;100667.09;;;5.78;69.52
77739;BME280;66904;59.926;30.404;2024-02-23T17:25:47;100676.25;;;5.70;69.72
77739;BME280;66904;59.926;30.404;2024-02-23T17:31:00;100676.84;;;5.60;69.64
77739;BME280;66904;59.926;30.404;2024-02-23T17:36:10;100674.47;;;5.55;69.33
77739;BME280;66904;59.926;30.404;2024-02-23T17:41:21;100681.06;;;5.47;69.73
77739;BME280;66904;59.926;30.404;2024-02-23T17:46:32;100682.50;;;5.52;69.56
77739;BME280;66904;59.926;30.404;2024-02-23T17:51:43;100685.38;;;5.48;70.44
77739;BME280;66904;59.926;30.404;2024-02-23T17:56:53;100685.53;;;5.45;69.94
77739;BME280;66904;59.926;30.404;2024-02-23T18:02:05;100697.78;;;5.44;70.25
77739;BME280;66904;59.926;30.404;2024-02-23T18:07:16;100700.19;;;5.49;70.02
77739;BME280;66904;59.926;30.404;2024-02-23T18:12:27;100703.66;;;5.49;70.49
77739;BME280;66904;59.926;30.404;2024-02-23T18:17:38;100698.66;;;5.45;70.11
77739;BME280;66904;59.926;30.404;2024-02-23T18:22:49;100706.91;;;5.37;70.55
77739;BME280;66904;59.926;30.404;2024-02-23T18:28:00;100703.69;;;5.32;70.35
77739;BME280;66904;59.926;30.404;2024-02-23T18:33:11;100699.31;;;5.33;70.93
77739;BME280;66904;59.926;30.404;2024-02-23T18:38:22;100696.53;;;5.36;70.55
77739;BME280;66904;59.926;30.404;2024-02-23T18:43:35;100696.06;;;5.28;71.13
77739;BME280;66904;59.926;30.404;2024-02-23T18:48:46;100705.19;;;5.20;71.12
77739;BME280;66904;59.926;30.404;2024-02-23T18:53:57;100703.91;;;5.12;70.88
77739;BME280;66904;59.926;30.404;2024-02-23T18:59:08;100708.22;;;5.13;71.17
77739;BME280;66904;59.926;30.404;2024-02-23T19:04:20;100711.00;;;5.10;71.31
77739;BME280;66904;59.926;30.404;2024-02-23T19:09:31;100699.66;;;5.09;71.71
77739;BME280;66904;59.926;30.404;2024-02-23T19:14:41;100706.00;;;5.05;71.65
77739;BME280;66904;59.926;30.404;2024-02-23T19:19:52;100707.06;;;5.01;71.60
77739;BME280;66904;59.926;30.404;2024-02-23T19:25:06;100704.88;;;4.94;71.77
77739;BME280;66904;59.926;30.404;2024-02-23T19:30:20;100707.53;;;4.92;72.63
77739;BME280;66904;59.926;30.404;2024-02-23T19:35:30;100707.00;;;4.86;72.58
77739;BME280;66904;59.926;30.404;2024-02-23T19:40:41;100708.94;;;4.82;72.46
77739;BME280;66904;59.926;30.404;2024-02-23T19:45:52;100706.16;;;4.85;72.47
77739;BME280;66904;59.926;30.404;2024-02-23T19:51:03;100717.41;;;4.87;72.50
77739;BME280;66904;59.926;30.404;2024-02-23T19:56:16;100723.28;;;4.92;72.37
77739;BME280;66904;59.926;30.404;2024-02-23T20:01:27;100723.34;;;4.91;72.36
77739;BME280;66904;59.926;30.404;2024-02-23T20:06:37;100713.97;;;4.87;72.82
77739;BME280;66904;59.926;30.404;2024-02-23T20:11:48;100726.13;;;4.88;72.97
77739;BME280;66904;59.926;30.404;2024-02-23T20:17:00;100732.31;;;4.87;73.25
77739;BME280;66904;59.926;30.404;2024-02-23T20:22:10;100732.53;;;4.82;73.44
77739;BME280;66904;59.926;30.404;2024-02-23T20:27:24;100742.47;;;4.76;73.15
77739;BME280;66904;59.926;30.404;2024-02-23T20:32:35;100734.53;;;4.77;73.68
77739;BME280;66904;59.926;30.404;2024-02-23T20:37:45;100741.72;;;4.74;73.31
77739;BME280;66904;59.926;30.404;2024-02-23T20:42:56;100757.44;;;4.74;73.01
77739;BME280;66904;59.926;30.404;2024-02-23T20:48:07;100752.78;;;4.79;73.29
77739;BME280;66904;59.926;30.404;2024-02-23T20:53:20;100756.16;;;4.81;73.28
77739;BME280;66904;59.926;30.404;2024-02-23T20:58:31;100751.34;;;4.73;73.60
77739;BME280;66904;59.926;30.404;2024-02-23T21:03:42;100761.41;;;4.81;73.59
77739;BME280;66904;59.926;30.404;2024-02-23T21:08:52;100770.22;;;4.80;73.17
77739;BME280;66904;59.926;30.404;2024-02-23T21:14:03;100778.13;;;4.78;73.42
77739;BME280;66904;59.926;30.404;2024-02-23T21:19:14;100782.53;;;4.78;73.28
77739;BME280;66904;59.926;30.404;2024-02-23T21:24:24;100785.94;;;4.80;73.56
77739;BME280;66904;59.926;30.404;2024-02-23T21:29:35;100786.00;;;4.78;73.40
77739;BME280;66904;59.926;30.404;2024-02-23T21:34:46;100796.63;;;4.75;73.61
77739;BME280;66904;59.926;30.404;2024-02-23T21:39:57;100799.50;;;4.71;73.53
77739;BME280;66904;59.926;30.404;2024-02-23T21:45:08;100803.03;;;4.69;73.75
77739;BME280;66904;59.926;30.404;2024-02-23T21:50:19;100819.66;;;4.68;73.81
77739;BME280;66904;59.926;30.404;2024-02-23T21:55:31;100817.03;;;4.68;74.14
77739;BME280;66904;59.926;30.404;2024-02-23T22:00:42;100814.72;;;4.62;74.30
77739;BME280;66904;59.926;30.404;2024-02-23T22:05:53;100817.69;;;4.74;74.18
77739;BME280;66904;59.926;30.404;2024-02-23T22:11:04;100820.53;;;4.69;74.04
77739;BME280;66904;59.926;30.404;2024-02-23T22:16:14;100832.56;;;4.73;74.40
77739;BME280;66904;59.926;30.404;2024-02-23T22:21:25;100836.03;;;4.74;74.20
77739;BME280;66904;59.926;30.404;2024-02-23T22:26:36;100837.84;;;4.72;74.32
77739;BME280;66904;59.926;30.404;2024-02-23T22:31:47;100850.09;;;4.71;74.22
77739;BME280;66904;59.926;30.404;2024-02-23T22:36:58;100845.88;;;4.68;74.40
77739;BME280;66904;59.926;30.404;2024-02-23T22:42:09;100855.59;;;4.66;74.62
77739;BME280;66904;59.926;30.404;2024-02-23T22:47:20;100855.72;;;4.63;74.37
77739;BME280;66904;59.926;30.404;2024-02-23T22:52:31;100844.59;;;4.58;74.59
77739;BME280;66904;59.926;30.404;2024-02-23T22:57:42;100848.09;;;4.59;74.66
77739;BME280;66904;59.926;30.404;2024-02-23T23:02:52;100859.41;;;4.59;74.31
77739;BME280;66904;59.926;30.404;2024-02-23T23:08:03;100862.88;;;4.60;74.60
77739;BME280;66904;59.926;30.404;2024-02-23T23:13:14;100860.56;;;4.54;74.63
77739;BME280;66904;59.926;30.404;2024-02-23T23:18:25;100876.34;;;4.52;74.52
77739;BME280;66904;59.926;30.404;2024-02-23T23:23:35;100883.06;;;4.58;74.93
77739;BME280;66904;59.926;30.404;2024-02-23T23:28:46;100892.91;;;4.53;74.49
77739;BME280;66904;59.926;30.404;2024-02-23T23:33:57;100879.97;;;4.50;74.85
77739;BME280;66904;59.926;30.404;2024-02-23T23:39:10;100894.63;;;4.54;74.82
77739;BME280;66904;59.926;30.404;2024-02-23T23:44:20;100890.34;;;4.51;75.01
77739;BME280;66904;59.926;30.404;2024-02-23T23:49:32;100897.25;;;4.54;74.80
77739;BME280;66904;59.926;30.404;2024-02-23T23:54:42;100895.69;;;4.50;74.64
77739;BME280;66904;59.926;30.404;2024-02-23T23:59:53;100888.09;;;4.44;74.88
